Wangaratta Airport

Jump to: basic info | weather | frequencies | runways | comments

Related pages: nearby airports | nearby navaids | notams | map

Basic information (top)

Codes: WGT YWGT
Location: lon -36.415798, lat 146.307007, elev 504 ft / 154 m msl
Status: medium_airport
Scheduled airline service: no
Links: Wikipedia Mobile

Weather (top)

Current conditions (rec'd 2014/08/02 06:00Z):

YWGT 020600Z AUTO 24008KT //// // ////// 11/02 Q1029

Airport forecast (rec'd 2014/07/31 20:03Z):

TAF YWGT 311812Z 3120/0108 30012KT 9999 -SHRA SCT012 BKN025 
      BECMG 0100/0101 29014G26KT 9999 SHRA SCT030 SCT050 
      BECMG 0104/0106 25014G26KT 9999 SHRA SCT030 SCT050 INTER 3120/0101 4000 SHRA BKN012 INTER 0101/0108 27020G35KT 4000 SHRAGS BKN015

Frequencies (top)

Verify before use: may be inaccurate or out of date.

CTAF: 119.1 MHz (CTAF)
FSS: 125.2 MHz (MELBOURNE CNTR)

Runways (top)

09/27: 1,739 x 60 ft (530 x 18 m) — grass — not lighted

18/36: 5,381 x 98 ft (1,640 x 30 m) — paved — lighted

Latest comments (top)

why: Why can't I contact the wgt? When are ... [read]

WGT: A real shame that the Airworld museum closed down. [read]

More... (top)

See also NOTAMs and nearby airports and navaids, or visit the Wangaratta Airport page at the main OurAirports website..